Time;durP1;ratioP1;P1;durP2;ratioP2;P2;SDS_P1;SDS_P2;PMS_P1;PMS_P2;Temp;Humidity;BMP_temperature;BMP_pressure;BME280_temperature;BME280_humidity;BME280_pressure;Samples;Min_cycle;Max_cycle;Signal;HPM_P1;HPM_P2
2022/05/02 00:01:04;;;;;;;;;;;18.50;81.20;;;;;;4921346;28;96963;-69
2022/05/02 00:03:35;;;;;;;;;;;18.50;81.10;;;;;;4931732;28;95909;-68
2022/05/02 00:06:07;;;;;;;;;;;18.60;80.80;;;;;;4932570;28;96555;-69
2022/05/02 00:08:37;;;;;;;;;;;18.70;80.90;;;;;;4929669;28;96843;-69
2022/05/02 00:11:06;;;;;;;;;;;18.70;81.00;;;;;;4930016;28;96463;-69
2022/05/02 00:13:36;;;;;;;;;;;18.80;79.90;;;;;;4928843;28;95732;-69
2022/05/02 00:16:08;;;;;;;;;;;18.90;81.00;;;;;;4920404;28;95827;-70
2022/05/02 00:18:39;;;;;;;;;;;18.90;80.90;;;;;;4930032;28;95674;-69
2022/05/02 00:21:09;;;;;;;;;;;19.00;80.90;;;;;;4928407;28;96177;-69
2022/05/02 00:23:38;;;;;;;;;;;19.00;80.90;;;;;;4930248;28;95742;-68
2022/05/02 00:26:08;;;;;;;;;;;19.10;80.70;;;;;;4933165;28;95813;-71
2022/05/02 00:28:38;;;;;;;;;;;19.10;78.30;;;;;;4911020;28;97798;-69
2022/05/02 00:31:08;;;;;;;;;;;19.00;79.70;;;;;;4918726;28;96382;-70
2022/05/02 00:33:39;;;;;;;;;;;19.00;79.70;;;;;;4920624;28;96506;-68
2022/05/02 00:36:09;;;;;;;;;;;19.00;79.50;;;;;;4930306;28;95950;-69
2022/05/02 00:38:39;;;;;;;;;;;19.10;79.70;;;;;;4927281;28;95830;-68
2022/05/02 00:41:11;;;;;;;;;;;19.20;79.90;;;;;;4929408;28;96093;-68
2022/05/02 00:43:42;;;;;;;;;;;19.30;79.90;;;;;;4944424;28;96367;-70
2022/05/02 00:46:19;;;;;;;;;;;19.30;79.80;;;;;;4925081;28;95786;-70
2022/05/02 00:48:49;;;;;;;;;;;19.40;79.70;;;;;;4929321;28;95816;-69
2022/05/02 00:51:22;;;;;;;;;;;19.50;79.60;;;;;;4944520;28;95911;-69
2022/05/02 00:53:53;;;;;;;;;;;19.50;79.60;;;;;;4931340;28;95916;-69
2022/05/02 00:56:22;;;;;;;;;;;19.60;79.50;;;;;;4931946;28;96037;-69
2022/05/02 00:58:54;;;;;;;;;;;19.60;79.50;;;;;;4941095;28;96891;-68
2022/05/02 01:01:26;;;;;;;;;;;19.70;79.40;;;;;;4920781;28;95789;-70
2022/05/02 01:03:57;;;;;;;;;;;19.80;79.50;;;;;;4932171;28;95907;-68
2022/05/02 01:09:16;;;;;;;;;;;19.80;79.30;;;;;;4939577;28;96514;-70
2022/05/02 01:11:45;;;;;;;;;;;19.90;79.30;;;;;;4940899;28;95354;-73
2022/05/02 01:14:15;;;;;;;;;;;20.00;79.20;;;;;;4941803;28;95771;-70
2022/05/02 01:16:44;;;;;;;;;;;20.10;79.20;;;;;;4936314;28;95777;-69
2022/05/02 01:19:14;;;;;;;;;;;20.10;79.00;;;;;;4932366;28;96433;-70
2022/05/02 01:21:45;;;;;;;;;;;20.20;79.00;;;;;;4928308;28;95789;-69
2022/05/02 01:24:15;;;;;;;;;;;20.20;78.90;;;;;;4929312;28;96552;-70
2022/05/02 01:26:46;;;;;;;;;;;20.30;78.80;;;;;;4911646;28;95306;-69
2022/05/02 01:29:16;;;;;;;;;;;20.30;79.40;;;;;;4928657;28;95907;-69
2022/05/02 01:31:45;;;;;;;;;;;20.40;78.60;;;;;;4916788;28;97802;-68
2022/05/02 01:34:15;;;;;;;;;;;20.50;78.60;;;;;;4933074;28;96254;-68
2022/05/02 01:36:45;;;;;;;;;;;20.50;78.50;;;;;;4929287;28;96652;-67
2022/05/02 01:39:16;;;;;;;;;;;20.60;77.80;;;;;;4928951;28;95905;-68
2022/05/02 01:41:48;;;;;;;;;;;20.50;77.90;;;;;;4928635;28;96402;-68
2022/05/02 01:44:18;;;;;;;;;;;20.60;78.00;;;;;;4929089;28;96352;-70
2022/05/02 01:46:48;;;;;;;;;;;20.60;78.00;;;;;;4922706;28;95709;-69
2022/05/02 01:49:17;;;;;;;;;;;20.70;78.00;;;;;;4930246;28;95824;-68
2022/05/02 01:51:47;;;;;;;;;;;20.70;78.00;;;;;;4929581;28;95824;-68
2022/05/02 01:54:21;;;;;;;;;;;20.80;77.90;;;;;;4912078;28;95805;-68
2022/05/02 01:56:57;;;;;;;;;;;20.90;78.00;;;;;;4929391;28;96268;-67
2022/05/02 01:59:29;;;;;;;;;;;20.90;77.70;;;;;;4927692;28;95853;-69
2022/05/02 02:02:01;;;;;;;;;;;21.00;77.90;;;;;;4907685;28;95944;-68
2022/05/02 02:07:21;;;;;;;;;;;21.10;77.60;;;;;;4927884;28;95916;-68
2022/05/02 02:09:51;;;;;;;;;;;21.00;75.00;;;;;;4926679;28;95784;-68
2022/05/02 02:12:22;;;;;;;;;;;21.00;75.40;;;;;;4926706;28;95790;-68
2022/05/02 02:14:52;;;;;;;;;;;20.90;75.80;;;;;;4928740;28;95802;-68
2022/05/02 02:17:23;;;;;;;;;;;20.90;74.90;;;;;;4921371;28;96209;-68
2022/05/02 02:19:53;;;;;;;;;;;20.90;75.30;;;;;;4929546;28;96752;-69
2022/05/02 02:22:24;;;;;;;;;;;20.90;73.30;;;;;;4928576;28;95863;-67
2022/05/02 02:24:54;;;;;;;;;;;21.00;74.10;;;;;;4930640;28;95927;-68
2022/05/02 02:27:25;;;;;;;;;;;20.90;72.50;;;;;;4930411;28;95937;-68
2022/05/02 02:29:56;;;;;;;;;;;20.90;72.90;;;;;;4924965;28;97057;-68
2022/05/02 02:32:26;;;;;;;;;;;21.00;73.60;;;;;;4911314;28;96487;-68
2022/05/02 02:34:57;;;;;;;;;;;21.00;69.50;;;;;;4909249;28;96359;-68
2022/05/02 02:37:28;;;;;;;;;;;21.00;70.30;;;;;;4929882;28;95761;-68
2022/05/02 02:39:59;;;;;;;;;;;21.00;70.10;;;;;;4928888;28;97871;-69
2022/05/02 02:42:31;;;;;;;;;;;21.10;68.90;;;;;;4928609;28;96512;-69
2022/05/02 02:45:04;;;;;;;;;;;21.20;69.70;;;;;;4927644;28;96485;-70
2022/05/02 02:47:36;;;;;;;;;;;21.10;67.50;;;;;;4920980;28;95460;-70
2022/05/02 02:50:06;;;;;;;;;;;21.10;67.20;;;;;;4929229;28;97087;-70
2022/05/02 02:52:37;;;;;;;;;;;21.10;67.70;;;;;;4927091;28;95951;-70
2022/05/02 02:55:06;;;;;;;;;;;21.10;66.90;;;;;;4928190;28;96320;-69
2022/05/02 02:57:39;;;;;;;;;;;21.00;66.10;;;;;;4928795;28;96357;-69
2022/05/02 03:00:12;;;;;;;;;;;21.10;66.20;;;;;;4924292;28;96487;-68
2022/05/02 03:02:43;;;;;;;;;;;21.00;67.40;;;;;;4929188;28;103150;-69
2022/05/02 03:08:02;;;;;;;;;;;21.00;68.00;;;;;;4927082;28;95916;-69
2022/05/02 03:10:32;;;;;;;;;;;21.10;68.50;;;;;;4927018;28;96831;-69
2022/05/02 03:13:02;;;;;;;;;;;21.10;69.10;;;;;;4926629;28;96397;-68
2022/05/02 03:15:33;;;;;;;;;;;21.10;68.80;;;;;;4918119;28;95815;-68
2022/05/02 03:18:09;;;;;;;;;;;21.10;69.10;;;;;;4927338;28;96435;-68
2022/05/02 03:20:39;;;;;;;;;;;21.10;69.60;;;;;;4926304;28;95798;-68
2022/05/02 03:23:10;;;;;;;;;;;21.10;68.90;;;;;;4929914;28;96077;-68
2022/05/02 03:25:40;;;;;;;;;;;21.10;68.90;;;;;;4926627;28;96413;-70
2022/05/02 03:28:11;;;;;;;;;;;21.10;69.30;;;;;;4923661;28;95959;-68
2022/05/02 03:30:42;;;;;;;;;;;21.10;69.70;;;;;;4917937;28;98295;-68
2022/05/02 03:33:12;;;;;;;;;;;21.10;69.80;;;;;;4920891;28;96083;-67
2022/05/02 03:35:44;;;;;;;;;;;21.10;70.00;;;;;;4920307;28;97252;-68
2022/05/02 03:38:15;;;;;;;;;;;21.20;70.20;;;;;;4925878;28;96957;-67
2022/05/02 03:40:46;;;;;;;;;;;21.10;70.60;;;;;;4924873;28;96847;-66
2022/05/02 03:43:15;;;;;;;;;;;21.10;70.70;;;;;;4925297;28;95732;-66
2022/05/02 03:45:46;;;;;;;;;;;21.20;70.60;;;;;;4920471;28;95761;-66
2022/05/02 03:48:16;;;;;;;;;;;21.10;70.80;;;;;;4928646;28;95980;-67
2022/05/02 03:50:47;;;;;;;;;;;21.10;71.20;;;;;;4925953;28;96326;-66
2022/05/02 03:53:18;;;;;;;;;;;21.10;70.60;;;;;;4927348;28;96187;-66
2022/05/02 03:55:48;;;;;;;;;;;21.00;70.80;;;;;;4928832;28;96507;-66
2022/05/02 03:58:19;;;;;;;;;;;21.00;70.70;;;;;;4927218;28;95981;-67
2022/05/02 04:00:50;;;;;;;;;;;21.10;70.80;;;;;;4918873;28;96515;-68
2022/05/02 04:03:21;;;;;;;;;;;21.10;70.90;;;;;;4943585;28;97230;-68
2022/05/02 04:05:51;;;;;;;;;;;21.20;71.00;;;;;;4930535;28;95812;-67
2022/05/02 04:08:20;;;;;;;;;;;21.30;71.00;;;;;;4932913;28;96799;-68
2022/05/02 04:10:54;;;;;;;;;;;21.40;71.00;;;;;;4938077;28;95813;-68
2022/05/02 04:13:23;;;;;;;;;;;21.50;71.10;;;;;;4941611;28;95339;-68
2022/05/02 04:15:54;;;;;;;;;;;21.60;71.20;;;;;;4934395;28;98206;-66
2022/05/02 04:18:24;;;;;;;;;;;21.60;71.30;;;;;;4939158;28;95423;-67
2022/05/02 04:20:54;;;;;;;;;;;21.60;71.40;;;;;;4932682;28;98252;-67
2022/05/02 04:23:24;;;;;;;;;;;21.70;71.50;;;;;;4931764;28;95746;-67
2022/05/02 04:25:53;;;;;;;;;;;21.70;71.60;;;;;;4929675;28;95760;-68
2022/05/02 04:28:24;;;;;;;;;;;21.80;71.70;;;;;;4931572;28;95951;-68
2022/05/02 04:30:55;;;;;;;;;;;21.80;71.70;;;;;;4921527;28;95928;-68
2022/05/02 04:33:27;;;;;;;;;;;21.80;71.70;;;;;;4921976;28;96046;-69
2022/05/02 04:35:58;;;;;;;;;;;21.90;71.80;;;;;;4929924;28;95696;-69
2022/05/02 04:38:30;;;;;;;;;;;21.90;69.60;;;;;;4933119;28;97836;-68
2022/05/02 04:41:00;;;;;;;;;;;22.00;71.80;;;;;;4933123;28;95960;-67
2022/05/02 04:43:31;;;;;;;;;;;22.00;71.80;;;;;;4931074;28;96840;-69
2022/05/02 04:46:02;;;;;;;;;;;22.10;71.80;;;;;;4931633;28;95810;-70
2022/05/02 04:48:32;;;;;;;;;;;22.10;71.80;;;;;;4934969;28;95679;-68
2022/05/02 04:51:02;;;;;;;;;;;22.10;71.90;;;;;;4915696;28;95720;-68
2022/05/02 04:53:32;;;;;;;;;;;22.20;72.00;;;;;;4934360;28;96188;-67
2022/05/02 04:56:02;;;;;;;;;;;22.20;72.00;;;;;;4934965;28;95293;-68
2022/05/02 04:58:33;;;;;;;;;;;22.20;72.00;;;;;;4917418;28;97407;-69
2022/05/02 05:01:07;;;;;;;;;;;22.30;72.20;;;;;;4927349;28;97184;-69
2022/05/02 05:03:38;;;;;;;;;;;22.30;72.10;;;;;;4934243;28;97040;-68
2022/05/02 05:06:09;;;;;;;;;;;22.30;72.00;;;;;;4933379;28;95622;-70
2022/05/02 05:08:41;;;;;;;;;;;22.30;72.10;;;;;;4933540;28;95866;-67
2022/05/02 05:11:24;;;;;;;;;;;22.30;70.70;;;;;;4928501;28;95757;-67
2022/05/02 05:17:27;;;;;;;;;;;22.00;71.70;;;;;;4925048;28;96743;-67
2022/05/02 05:20:10;;;;;;;;;;;21.90;71.20;;;;;;4928980;28;96640;-67
2022/05/02 05:22:58;;;;;;;;;;;21.80;71.80;;;;;;4944148;28;95772;-67
2022/05/02 05:25:46;;;;;;;;;;;21.70;72.00;;;;;;4932373;28;96067;-66
2022/05/02 05:28:35;;;;;;;;;;;21.60;71.90;;;;;;4930761;28;96401;-70
2022/05/02 05:31:24;;;;;;;;;;;21.60;72.20;;;;;;4922742;28;96371;-68
2022/05/02 05:34:06;;;;;;;;;;;21.50;72.40;;;;;;4922313;28;96366;-69
2022/05/02 05:36:39;;;;;;;;;;;21.50;71.00;;;;;;4927132;28;96199;-68
2022/05/02 05:39:30;;;;;;;;;;;21.40;71.30;;;;;;4928624;28;95877;-68
2022/05/02 05:42:17;;;;;;;;;;;21.50;71.10;;;;;;4928745;28;96285;-68
2022/05/02 05:44:57;;;;;;;;;;;21.40;71.10;;;;;;4929759;28;95496;-68
2022/05/02 05:47:32;;;;;;;;;;;21.40;71.40;;;;;;4923378;28;95856;-67
2022/05/02 05:50:20;;;;;;;;;;;21.40;71.90;;;;;;4929292;28;95726;-67
2022/05/02 05:53:03;;;;;;;;;;;21.40;69.60;;;;;;4929065;28;96390;-68
2022/05/02 05:55:41;;;;;;;;;;;21.30;70.90;;;;;;4928998;28;96617;-68
2022/05/02 05:58:13;;;;;;;;;;;21.40;71.40;;;;;;4927879;28;96480;-67
2022/05/02 06:00:45;;;;;;;;;;;21.40;71.70;;;;;;4921451;28;96133;-67
2022/05/02 06:03:17;;;;;;;;;;;21.40;71.60;;;;;;4929600;28;96352;-67
2022/05/02 06:05:51;;;;;;;;;;;21.30;71.50;;;;;;4928594;28;96365;-68
2022/05/02 06:08:27;;;;;;;;;;;21.30;71.50;;;;;;4928628;28;97706;-67
2022/05/02 06:10:58;;;;;;;;;;;21.20;71.60;;;;;;4909029;28;98451;-68
2022/05/02 06:13:29;;;;;;;;;;;21.20;69.80;;;;;;4927211;28;95971;-66
2022/05/02 06:19:23;;;;;;;;;;;21.30;71.30;;;;;;4927458;28;95565;-67
2022/05/02 06:21:53;;;;;;;;;;;21.20;71.40;;;;;;4926909;28;95687;-67
2022/05/02 06:24:26;;;;;;;;;;;21.20;71.10;;;;;;4928164;28;97526;-67
2022/05/02 06:26:59;;;;;;;;;;;21.20;70.60;;;;;;4927531;28;96671;-67
2022/05/02 06:29:29;;;;;;;;;;;21.20;71.10;;;;;;4908427;28;96434;-68
2022/05/02 06:32:04;;;;;;;;;;;21.20;70.90;;;;;;4919681;28;96834;-67
2022/05/02 06:34:34;;;;;;;;;;;21.20;71.20;;;;;;4918736;28;96028;-68
2022/05/02 06:37:13;;;;;;;;;;;21.20;71.40;;;;;;4927785;28;98597;-67
2022/05/02 06:39:55;;;;;;;;;;;21.20;71.20;;;;;;4939353;28;96090;-68
2022/05/02 06:42:27;;;;;;;;;;;21.10;71.00;;;;;;4927395;28;95779;-67
2022/05/02 06:45:09;;;;;;;;;;;21.10;70.50;;;;;;4928141;28;95962;-66
2022/05/02 06:47:54;;;;;;;;;;;21.10;70.50;;;;;;4921114;28;101768;-67
2022/05/02 06:50:26;;;;;;;;;;;21.10;70.80;;;;;;4927846;28;96562;-67
2022/05/02 06:53:04;;;;;;;;;;;21.10;70.80;;;;;;4929649;28;95996;-67
2022/05/02 06:55:41;;;;;;;;;;;21.10;71.10;;;;;;4930188;28;95442;-68
2022/05/02 06:58:30;;;;;;;;;;;21.10;71.00;;;;;;4928128;28;95843;-66
2022/05/02 07:01:12;;;;;;;;;;;21.00;71.40;;;;;;4922170;28;96085;-67
2022/05/02 07:03:58;;;;;;;;;;;21.10;70.60;;;;;;4914168;28;95359;-67
2022/05/02 07:06:31;;;;;;;;;;;21.10;70.50;;;;;;4933988;28;95820;-67
2022/05/02 07:09:01;;;;;;;;;;;21.10;70.20;;;;;;4934777;28;95194;-66
2022/05/02 07:11:46;;;;;;;;;;;21.00;69.90;;;;;;4931236;28;95822;-67
2022/05/02 07:14:35;;;;;;;;;;;21.00;69.90;;;;;;4941465;28;95609;-67
2022/05/02 07:17:11;;;;;;;;;;;21.00;70.10;;;;;;4934219;28;95569;-67
2022/05/02 07:19:59;;;;;;;;;;;21.00;68.10;;;;;;4939026;28;98231;-67
2022/05/02 07:22:34;;;;;;;;;;;21.00;70.30;;;;;;4926056;28;97291;-67
2022/05/02 07:25:07;;;;;;;;;;;21.00;70.00;;;;;;4915372;28;95876;-67
2022/05/02 07:27:48;;;;;;;;;;;20.90;69.50;;;;;;4928809;28;95359;-67
2022/05/02 07:30:22;;;;;;;;;;;20.90;70.30;;;;;;4919763;28;96959;-68
2022/05/02 07:32:54;;;;;;;;;;;20.80;69.70;;;;;;4937547;28;103688;-67
2022/05/02 07:35:26;;;;;;;;;;;20.90;70.20;;;;;;4920173;28;95487;-68
2022/05/02 07:37:59;;;;;;;;;;;20.90;70.50;;;;;;4926792;28;95982;-68
2022/05/02 07:40:29;;;;;;;;;;;20.90;70.60;;;;;;4927502;28;96527;-68
2022/05/02 07:43:00;;;;;;;;;;;20.90;70.70;;;;;;4929164;28;97784;-68
2022/05/02 07:45:31;;;;;;;;;;;20.90;70.60;;;;;;4921602;28;95816;-68
2022/05/02 07:48:03;;;;;;;;;;;20.90;70.50;;;;;;4929161;28;96305;-68
2022/05/02 07:50:34;;;;;;;;;;;20.90;68.90;;;;;;4928174;28;95777;-68
2022/05/02 07:53:07;;;;;;;;;;;20.80;68.50;;;;;;4926350;28;97785;-68
2022/05/02 07:55:38;;;;;;;;;;;20.80;68.80;;;;;;4928637;28;95863;-68
2022/05/02 07:58:10;;;;;;;;;;;20.80;69.50;;;;;;4927867;28;95973;-68
2022/05/02 08:00:41;;;;;;;;;;;20.90;69.00;;;;;;4920334;28;97499;-68
2022/05/02 08:03:15;;;;;;;;;;;20.90;71.50;;;;;;4927474;28;96017;-67
2022/05/02 08:05:47;;;;;;;;;;;20.90;71.40;;;;;;4925684;28;95852;-67
2022/05/02 08:08:22;;;;;;;;;;;20.90;71.00;;;;;;4928533;28;95759;-67
2022/05/02 08:10:57;;;;;;;;;;;20.90;70.90;;;;;;4928891;28;96191;-67
2022/05/02 08:13:38;;;;;;;;;;;20.90;70.70;;;;;;4942935;28;95644;-67
2022/05/02 08:16:27;;;;;;;;;;;20.90;70.90;;;;;;4934033;28;95997;-68
2022/05/02 08:18:58;;;;;;;;;;;20.90;70.80;;;;;;4929015;28;96113;-67
2022/05/02 08:21:32;;;;;;;;;;;20.80;70.70;;;;;;4907717;28;98877;-67
2022/05/02 08:27:21;;;;;;;;;;;20.80;71.00;;;;;;4927225;28;95952;-66
2022/05/02 08:30:08;;;;;;;;;;;20.80;70.90;;;;;;4928105;28;95766;-67
2022/05/02 08:32:42;;;;;;;;;;;20.70;71.00;;;;;;4916931;28;96568;-67
2022/05/02 08:35:33;;;;;;;;;;;20.80;71.30;;;;;;4923066;28;95979;-67
2022/05/02 08:38:18;;;;;;;;;;;20.80;71.20;;;;;;4929582;28;95275;-67
2022/05/02 08:41:06;;;;;;;;;;;20.80;71.10;;;;;;4929749;28;96469;-66
2022/05/02 08:43:54;;;;;;;;;;;20.80;71.00;;;;;;4942193;28;96350;-66
2022/05/02 08:46:43;;;;;;;;;;;20.80;71.00;;;;;;4920521;28;96027;-67
2022/05/02 08:52:22;;;;;;;;;;;20.70;71.90;;;;;;4931532;28;95922;-66
2022/05/02 08:55:11;;;;;;;;;;;20.70;71.50;;;;;;4928352;28;95742;-66
2022/05/02 08:57:44;;;;;;;;;;;20.70;71.60;;;;;;4929931;28;95877;-66
2022/05/02 09:00:20;;;;;;;;;;;20.70;71.80;;;;;;4925975;28;95319;-67
2022/05/02 09:03:29;;;;;;;;;;;20.70;71.80;;;;;;4930048;28;96861;-67
2022/05/02 09:06:22;;;;;;;;;;;20.60;72.00;;;;;;4930252;28;95841;-67
2022/05/02 09:09:02;;;;;;;;;;;20.60;72.00;;;;;;4928156;28;95752;-67
2022/05/02 09:11:34;;;;;;;;;;;20.60;71.90;;;;;;4928766;28;97070;-67
2022/05/02 09:14:25;;;;;;;;;;;20.60;72.00;;;;;;4928951;28;96173;-67
2022/05/02 09:17:04;;;;;;;;;;;20.50;72.10;;;;;;4918932;28;95810;-66
2022/05/02 09:19:56;;;;;;;;;;;20.50;69.80;;;;;;4927215;28;95565;-67
2022/05/02 09:22:45;;;;;;;;;;;20.50;72.00;;;;;;4928395;28;95838;-67
2022/05/02 09:25:24;;;;;;;;;;;20.40;71.90;;;;;;4919082;28;95709;-67
2022/05/02 09:28:16;;;;;;;;;;;20.50;71.80;;;;;;4928571;28;96004;-67
2022/05/02 09:31:04;;;;;;;;;;;20.40;70.30;;;;;;4920382;28;95736;-67
2022/05/02 09:33:52;;;;;;;;;;;20.40;71.80;;;;;;4924087;28;95300;-67
2022/05/02 09:36:25;;;;;;;;;;;20.40;71.70;;;;;;4941669;28;97566;-67
2022/05/02 09:39:16;;;;;;;;;;;20.40;71.00;;;;;;4926625;28;98207;-66
2022/05/02 09:41:55;;;;;;;;;;;20.40;71.10;;;;;;4932588;28;96550;-67
2022/05/02 09:50:35;;;;;;;;;;;20.40;68.70;;;;;;4929636;28;95791;-67
2022/05/02 09:53:31;;;;;;;;;;;20.30;68.70;;;;;;4926793;28;97516;-66
2022/05/02 09:58:53;;;;;;;;;;;20.30;70.80;;;;;;4930928;28;96248;-66
2022/05/02 10:01:28;;;;;;;;;;;20.30;71.00;;;;;;4922845;28;97507;-67
2022/05/02 10:04:01;;;;;;;;;;;20.20;71.00;;;;;;4934357;28;96512;-67
2022/05/02 10:06:43;;;;;;;;;;;20.30;71.20;;;;;;4931945;28;95836;-67
2022/05/02 10:09:13;;;;;;;;;;;20.30;71.50;;;;;;4952579;28;95671;-67
2022/05/02 10:11:54;;;;;;;;;;;20.30;71.50;;;;;;4936150;28;95770;-67
2022/05/02 10:14:58;;;;;;;;;;;20.30;71.70;;;;;;4941566;28;95967;-66
2022/05/02 10:17:51;;;;;;;;;;;20.30;71.70;;;;;;4923768;28;96178;-66
2022/05/02 10:20:22;;;;;;;;;;;20.30;71.80;;;;;;4943042;28;95885;-66
2022/05/02 10:23:03;;;;;;;;;;;20.30;71.80;;;;;;4936270;28;95386;-66
2022/05/02 10:25:36;;;;;;;;;;;20.30;71.70;;;;;;4925663;28;96389;-67
2022/05/02 10:28:13;;;;;;;;;;;20.30;69.60;;;;;;4924019;28;95936;-66
2022/05/02 10:30:51;;;;;;;;;;;20.30;69.50;;;;;;4913346;28;95922;-66
2022/05/02 10:33:26;;;;;;;;;;;20.30;71.60;;;;;;4916132;28;95965;-67
2022/05/02 10:36:00;;;;;;;;;;;20.30;71.60;;;;;;4915013;28;96188;-66
2022/05/02 10:38:34;;;;;;;;;;;20.30;71.60;;;;;;4906892;28;96529;-66
2022/05/02 10:41:16;;;;;;;;;;;20.30;71.70;;;;;;4922806;28;95880;-66
2022/05/02 10:43:50;;;;;;;;;;;20.30;71.70;;;;;;4924908;28;96357;-67
2022/05/02 10:46:22;;;;;;;;;;;20.30;71.60;;;;;;4918920;28;96752;-66
2022/05/02 10:48:59;;;;;;;;;;;20.30;71.60;;;;;;4908440;28;95850;-66
2022/05/02 10:51:41;;;;;;;;;;;20.30;71.60;;;;;;4925951;28;97063;-67
2022/05/02 10:54:27;;;;;;;;;;;20.30;71.60;;;;;;4927652;28;95817;-66
2022/05/02 10:57:04;;;;;;;;;;;20.30;71.60;;;;;;4927363;28;95957;-66
2022/05/02 10:59:38;;;;;;;;;;;20.30;71.70;;;;;;4924681;28;95366;-67
2022/05/02 11:02:21;;;;;;;;;;;20.30;71.60;;;;;;4918653;28;96105;-66
2022/05/02 11:05:18;;;;;;;;;;;20.30;71.60;;;;;;4917963;28;95925;-67
2022/05/02 11:08:09;;;;;;;;;;;20.30;71.60;;;;;;4925324;28;98300;-66
2022/05/02 11:10:43;;;;;;;;;;;20.30;71.70;;;;;;4924973;28;95670;-66
2022/05/02 11:13:32;;;;;;;;;;;20.30;71.60;;;;;;4924869;28;95941;-66
2022/05/02 11:16:20;;;;;;;;;;;20.20;71.60;;;;;;4917437;28;97757;-66
2022/05/02 11:22:17;;;;;;;;;;;20.20;71.60;;;;;;4926270;28;97109;-66
2022/05/02 11:25:07;;;;;;;;;;;20.20;71.70;;;;;;4925349;28;95955;-66
2022/05/02 11:27:41;;;;;;;;;;;20.20;71.70;;;;;;4926983;28;96026;-67
2022/05/02 11:30:12;;;;;;;;;;;20.20;71.80;;;;;;4918108;28;95669;-67
2022/05/02 11:33:02;;;;;;;;;;;20.30;71.90;;;;;;4921852;28;98091;-67
2022/05/02 11:35:35;;;;;;;;;;;20.30;72.00;;;;;;4916909;28;95619;-67
2022/05/02 11:38:07;;;;;;;;;;;20.30;72.20;;;;;;4943158;28;96421;-66
2022/05/02 11:40:48;;;;;;;;;;;20.30;72.40;;;;;;4928842;28;96640;-67
2022/05/02 11:43:22;;;;;;;;;;;20.30;72.80;;;;;;4933096;28;95943;-66
2022/05/02 11:46:05;;;;;;;;;;;20.30;73.10;;;;;;4940946;28;96101;-67
2022/05/02 11:48:50;;;;;;;;;;;20.30;73.20;;;;;;4925982;28;95920;-67
2022/05/02 11:51:31;;;;;;;;;;;20.30;73.40;;;;;;4934266;28;95663;-67
2022/05/02 11:54:03;;;;;;;;;;;20.40;71.40;;;;;;4934846;28;96045;-67
2022/05/02 11:56:41;;;;;;;;;;;20.40;73.50;;;;;;4934947;28;95501;-66
2022/05/02 11:59:12;;;;;;;;;;;20.40;73.50;;;;;;4933183;28;96778;-67
2022/05/02 12:01:47;;;;;;;;;;;20.40;73.70;;;;;;4911136;28;97585;-66
2022/05/02 12:04:20;;;;;;;;;;;20.40;73.50;;;;;;4933246;28;95854;-67
2022/05/02 12:07:02;;;;;;;;;;;20.50;73.70;;;;;;4917007;28;96261;-67
2022/05/02 12:09:37;;;;;;;;;;;20.50;73.80;;;;;;4931451;28;96075;-67
2022/05/02 12:12:10;;;;;;;;;;;20.50;73.80;;;;;;4931156;28;97725;-66
2022/05/02 12:14:40;;;;;;;;;;;20.50;74.40;;;;;;4934248;28;96821;-67
2022/05/02 12:17:11;;;;;;;;;;;20.50;71.70;;;;;;4925237;28;95383;-67
2022/05/02 12:19:42;;;;;;;;;;;20.50;73.90;;;;;;4945857;28;96145;-67
2022/05/02 12:22:22;;;;;;;;;;;20.60;74.00;;;;;;4946611;28;97431;-68
2022/05/02 12:24:54;;;;;;;;;;;20.60;74.00;;;;;;4934124;28;95325;-66
2022/05/02 12:27:26;;;;;;;;;;;20.60;73.90;;;;;;4934452;28;97572;-67
2022/05/02 12:29:58;;;;;;;;;;;20.60;74.10;;;;;;4932771;28;96289;-67
2022/05/02 12:32:31;;;;;;;;;;;20.60;74.00;;;;;;4923357;28;97084;-68
2022/05/02 12:35:04;;;;;;;;;;;20.60;73.90;;;;;;4922199;28;95899;-66
2022/05/02 12:37:39;;;;;;;;;;;20.70;74.00;;;;;;4931918;28;95781;-67
2022/05/02 12:40:10;;;;;;;;;;;20.70;74.10;;;;;;4946846;28;96360;-68
2022/05/02 12:42:47;;;;;;;;;;;20.70;74.10;;;;;;4932479;28;95352;-68
2022/05/02 12:45:19;;;;;;;;;;;20.70;74.10;;;;;;4940424;28;95719;-67
2022/05/02 12:47:52;;;;;;;;;;;20.80;74.20;;;;;;4934840;28;95814;-68
2022/05/02 12:50:25;;;;;;;;;;;20.80;74.00;;;;;;4933520;28;96110;-67
2022/05/02 12:52:56;;;;;;;;;;;20.70;72.00;;;;;;4932568;28;95334;-67
2022/05/02 12:55:39;;;;;;;;;;;20.60;72.70;;;;;;4933775;28;97285;-68
2022/05/02 13:01:03;;;;;;;;;;;20.50;70.40;;;;;;4925577;28;96561;-67
2022/05/02 13:03:37;;;;;;;;;;;20.50;72.30;;;;;;4935592;28;96159;-67
2022/05/02 13:06:08;;;;;;;;;;;20.50;72.10;;;;;;4934170;28;95736;-68
2022/05/02 13:08:43;;;;;;;;;;;20.50;71.70;;;;;;4930878;28;95857;-68
2022/05/02 13:11:15;;;;;;;;;;;20.50;69.90;;;;;;4931597;28;95796;-67
2022/05/02 13:13:48;;;;;;;;;;;20.40;71.50;;;;;;4931379;28;95788;-67
2022/05/02 13:16:26;;;;;;;;;;;20.40;71.30;;;;;;4926364;28;95739;-67
2022/05/02 13:19:00;;;;;;;;;;;20.30;71.10;;;;;;4925494;28;95453;-67
2022/05/02 13:21:32;;;;;;;;;;;20.30;71.20;;;;;;4941977;28;97350;-67
2022/05/02 13:24:05;;;;;;;;;;;20.20;71.10;;;;;;4943407;28;95285;-67
2022/05/02 13:26:56;;;;;;;;;;;20.10;71.00;;;;;;4944248;28;95380;-68
2022/05/02 13:29:56;;;;;;;;;;;20.10;71.10;;;;;;4958791;28;95368;-67
2022/05/02 13:32:34;;;;;;;;;;;20.10;71.10;;;;;;4905267;28;97155;-67
2022/05/02 13:35:10;;;;;;;;;;;20.00;71.10;;;;;;4923464;28;96242;-67
2022/05/02 13:37:47;;;;;;;;;;;20.00;71.30;;;;;;4949972;28;96000;-66
2022/05/02 13:40:20;;;;;;;;;;;20.00;71.70;;;;;;4946163;28;95389;-66
2022/05/02 13:42:57;;;;;;;;;;;20.00;71.90;;;;;;4944439;28;95823;-66
2022/05/02 13:45:29;;;;;;;;;;;20.10;72.00;;;;;;4924628;28;96775;-66
2022/05/02 13:48:01;;;;;;;;;;;20.10;72.20;;;;;;4934204;28;96005;-67
2022/05/02 13:50:39;;;;;;;;;;;20.10;72.20;;;;;;4931222;28;96113;-68
2022/05/02 13:53:18;;;;;;;;;;;20.20;72.40;;;;;;4932263;28;97771;-67
2022/05/02 13:56:09;;;;;;;;;;;20.20;72.30;;;;;;4933385;28;96353;-66
2022/05/02 13:58:43;;;;;;;;;;;20.30;72.20;;;;;;4932186;28;95903;-67
2022/05/02 14:01:35;;;;;;;;;;;20.30;71.70;;;;;;4941866;28;95463;-67
2022/05/02 14:04:24;;;;;;;;;;;20.40;72.00;;;;;;4934988;28;95777;-66
2022/05/02 14:09:45;;;;;;;;;;;20.50;71.90;;;;;;4935265;28;95837;-66
2022/05/02 14:12:19;;;;;;;;;;;20.60;71.90;;;;;;4934373;28;96883;-67
2022/05/02 14:14:54;;;;;;;;;;;20.80;71.70;;;;;;4915983;28;96031;-66
2022/05/02 14:17:26;;;;;;;;;;;20.80;71.60;;;;;;4924923;28;96077;-67
2022/05/02 14:20:19;;;;;;;;;;;20.90;69.40;;;;;;4948246;28;96611;-66
2022/05/02 14:22:59;;;;;;;;;;;21.00;71.50;;;;;;4934198;28;95359;-66
2022/05/02 14:25:36;;;;;;;;;;;20.90;71.30;;;;;;4932358;28;96611;-67
2022/05/02 14:28:11;;;;;;;;;;;21.00;71.30;;;;;;4931725;28;96978;-67
2022/05/02 14:30:42;;;;;;;;;;;21.10;71.30;;;;;;4926761;28;95745;-67
2022/05/02 14:33:17;;;;;;;;;;;21.10;71.30;;;;;;4940531;28;96172;-66
2022/05/02 14:35:47;;;;;;;;;;;21.20;71.20;;;;;;4926694;28;95959;-68
2022/05/02 14:38:18;;;;;;;;;;;21.20;71.10;;;;;;4933474;28;95950;-68
2022/05/02 14:40:56;;;;;;;;;;;21.30;71.00;;;;;;4934289;28;95831;-67
2022/05/02 14:43:26;;;;;;;;;;;21.30;71.00;;;;;;4934595;28;96014;-67
2022/05/02 14:45:57;;;;;;;;;;;21.40;70.80;;;;;;4941646;28;98648;-66
2022/05/02 14:48:27;;;;;;;;;;;21.30;70.70;;;;;;4936004;28;95813;-67
2022/05/02 14:51:07;;;;;;;;;;;21.50;70.70;;;;;;4947287;28;95620;-66
2022/05/02 14:53:44;;;;;;;;;;;21.50;70.60;;;;;;4934124;28;95955;-66
2022/05/02 14:56:16;;;;;;;;;;;21.60;70.50;;;;;;4932872;28;95880;-66
2022/05/02 14:58:50;;;;;;;;;;;21.60;69.90;;;;;;4933882;28;95749;-68
2022/05/02 15:01:26;;;;;;;;;;;21.70;70.30;;;;;;4925240;28;98832;-66
2022/05/02 15:03:59;;;;;;;;;;;21.60;68.80;;;;;;4921752;28;96110;-66
2022/05/02 15:06:35;;;;;;;;;;;21.40;68.00;;;;;;4932618;28;97690;-66
2022/05/02 15:10:11;;;;;;;;;;;21.40;69.10;;;;;;4913387;28;97159;-66
2022/05/02 15:12:20;;;;;;;;;;;21.40;69.40;;;;;;4932910;28;95793;-67
2022/05/02 15:15:16;;;;;;;;;;;21.40;69.40;;;;;;4931900;28;96122;-66
2022/05/02 15:18:20;;;;;;;;;;;21.50;69.40;;;;;;4925020;28;98528;-67
2022/05/02 15:20:57;;;;;;;;;;;21.20;68.10;;;;;;4930878;28;95724;-69
2022/05/02 15:23:26;;;;;;;;;;;21.00;68.30;;;;;;4926716;28;96075;-68
2022/05/02 15:25:56;;;;;;;;;;;20.80;68.80;;;;;;4926397;28;95799;-68
2022/05/02 15:37:47;;;;;;;;;;;20.30;69.60;;;;;;4927836;28;95299;-68
2022/05/02 15:40:36;;;;;;;;;;;20.30;69.90;;;;;;4926665;28;96930;-67
2022/05/02 15:43:37;;;;;;;;;;;20.20;70.00;;;;;;4926264;28;96969;-67
2022/05/02 15:46:13;;;;;;;;;;;20.10;70.20;;;;;;4917558;28;95916;-68
2022/05/02 15:48:45;;;;;;;;;;;20.10;70.40;;;;;;4929524;28;95481;-69
2022/05/02 15:51:15;;;;;;;;;;;20.00;70.50;;;;;;4944095;28;98418;-68
2022/05/02 15:53:47;;;;;;;;;;;19.90;70.70;;;;;;4929072;28;95910;-68